createdAt,value
2019-01-03T00:02:40.613Z,1.07
2019-01-03T00:05:34.105Z,1.05
2019-01-03T00:08:20.270Z,0.93
2019-01-03T00:11:17.436Z,0.90
2019-01-03T00:14:17.082Z,1.00
2019-01-03T00:17:03.170Z,1.40
2019-01-03T00:19:50.586Z,1.00
2019-01-03T00:22:41.103Z,1.02
2019-01-03T00:25:27.389Z,1.00
2019-01-03T00:28:13.512Z,1.20
2019-01-03T00:30:59.555Z,1.27
2019-01-03T00:33:45.063Z,1.00
2019-01-03T00:36:31.078Z,1.10
2019-01-03T00:39:23.054Z,1.05
2019-01-03T00:42:09.997Z,1.07
2019-01-03T00:44:56.585Z,1.02
2019-01-03T00:47:43.999Z,1.32
2019-01-03T00:50:37.194Z,1.27
2019-01-03T00:53:20.237Z,1.65
2019-01-03T00:56:06.418Z,1.50
2019-01-03T00:59:00.773Z,1.37
2019-01-03T01:01:51.477Z,1.03
2019-01-03T01:04:37.669Z,1.47
2019-01-03T01:07:24.789Z,1.45
2019-01-03T01:10:24.410Z,1.57
2019-01-03T01:13:23.807Z,1.25
2019-01-03T01:16:14.134Z,1.27
2019-01-03T01:19:10.911Z,1.45
2019-01-03T01:21:51.178Z,1.42
2019-01-03T01:24:33.777Z,1.47
2019-01-03T01:27:23.821Z,1.50
2019-01-03T01:30:18.687Z,1.57
2019-01-03T01:33:01.320Z,1.25
2019-01-03T01:35:39.688Z,1.40
2019-01-03T01:38:26.029Z,1.42
2019-01-03T01:41:12.655Z,1.40
2019-01-03T01:43:51.390Z,1.40
2019-01-03T01:46:40.722Z,1.47
2019-01-03T01:49:28.127Z,1.27
2019-01-03T01:52:11.817Z,1.42
2019-01-03T01:55:05.275Z,1.57
2019-01-03T01:57:51.790Z,1.40
2019-01-03T02:00:39.269Z,1.87
2019-01-03T02:03:26.661Z,1.50
2019-01-03T02:06:24.092Z,1.25
2019-01-03T02:09:10.396Z,1.50
2019-01-03T02:11:57.828Z,1.50
2019-01-03T02:14:45.224Z,1.40
2019-01-03T02:17:35.466Z,1.30
2019-01-03T02:20:21.952Z,1.45
2019-01-03T02:23:12.245Z,1.60
2019-01-03T02:26:05.744Z,1.30
2019-01-03T02:29:05.058Z,1.37
2019-01-03T02:31:55.503Z,1.25
2019-01-03T02:34:42.885Z,1.87
2019-01-03T02:37:29.194Z,1.60
2019-01-03T02:40:13.634Z,1.53
2019-01-03T02:42:59.730Z,1.63
2019-01-03T02:45:55.222Z,1.75
2019-01-03T02:48:51.749Z,1.57
2019-01-03T02:51:41.884Z,1.67
2019-01-03T02:54:39.384Z,1.40
2019-01-03T02:57:25.374Z,1.52
2019-01-03T03:00:14.584Z,2.00
2019-01-03T03:03:00.823Z,1.62
2019-01-03T03:06:00.629Z,1.70
2019-01-03T03:08:51.771Z,1.60
2019-01-03T03:11:38.088Z,1.80
2019-01-03T03:14:34.483Z,1.93
2019-01-03T03:17:27.698Z,1.83
2019-01-03T03:20:27.272Z,1.50
2019-01-03T03:23:20.662Z,1.53
2019-01-03T03:26:05.068Z,2.12
2019-01-03T03:28:51.364Z,1.98
2019-01-03T03:31:38.958Z,2.13
2019-01-03T03:34:29.442Z,2.07
2019-01-03T03:37:15.413Z,1.97
2019-01-03T03:40:06.330Z,1.80
2019-01-03T03:42:52.768Z,2.30
2019-01-03T03:45:40.182Z,2.17
2019-01-03T03:48:25.338Z,2.07
2019-01-03T03:51:15.538Z,2.10
2019-01-03T03:54:05.784Z,2.23
2019-01-03T03:56:45.112Z,2.30
2019-01-03T03:59:47.951Z,1.50
2019-01-03T04:02:34.486Z,2.00
2019-01-03T04:05:25.168Z,1.87
2019-01-03T04:08:06.823Z,1.77
2019-01-03T04:10:48.122Z,1.90
2019-01-03T04:13:38.408Z,1.77
2019-01-03T04:16:24.890Z,1.73
2019-01-03T04:19:10.915Z,1.50
2019-01-03T04:21:57.306Z,1.42
2019-01-03T04:24:59.735Z,1.80
2019-01-03T04:27:47.179Z,1.70
2019-01-03T04:30:40.391Z,1.87
2019-01-03T04:33:26.456Z,1.70
2019-01-03T04:36:05.063Z,2.00
2019-01-03T04:39:01.641Z,1.60
2019-01-03T04:41:47.101Z,1.50
2019-01-03T04:44:34.522Z,1.52
2019-01-03T04:47:18.886Z,1.55
2019-01-03T04:50:12.349Z,1.75
2019-01-03T04:52:58.496Z,1.63
2019-01-03T04:55:44.634Z,1.90
2019-01-03T04:58:39.457Z,1.90
2019-01-03T05:01:51.080Z,1.77
2019-01-03T05:04:35.921Z,1.80
2019-01-03T05:07:31.196Z,1.83
2019-01-03T05:10:17.632Z,1.97
2019-01-03T05:13:20.178Z,1.90
2019-01-03T05:16:22.874Z,1.60
2019-01-03T05:19:15.727Z,1.57
2019-01-03T05:22:01.667Z,1.80
2019-01-03T05:24:44.749Z,1.70
2019-01-03T05:27:30.850Z,2.00
2019-01-03T05:30:21.061Z,1.90
2019-01-03T05:33:15.416Z,1.73
2019-01-03T05:36:01.702Z,1.97
2019-01-03T05:38:46.993Z,1.90
2019-01-03T05:41:36.570Z,2.00
2019-01-03T05:44:23.590Z,1.63
2019-01-03T05:47:13.883Z,1.53
2019-01-03T05:50:05.550Z,1.80
2019-01-03T05:52:55.858Z,2.00
2019-01-03T05:55:44.784Z,1.60
2019-01-03T05:58:31.052Z,2.10
2019-01-03T06:01:21.239Z,2.00
2019-01-03T06:04:21.201Z,1.80
2019-01-03T06:07:07.250Z,2.13
2019-01-03T06:10:07.552Z,1.70
2019-01-03T06:13:00.735Z,1.50
2019-01-03T06:15:42.822Z,1.67
2019-01-03T06:18:35.130Z,1.90
2019-01-03T06:21:28.921Z,1.60
2019-01-03T06:24:15.130Z,1.90
2019-01-03T06:27:02.558Z,1.90
2019-01-03T06:29:46.993Z,1.90
2019-01-03T06:32:34.495Z,1.73
2019-01-03T06:35:27.706Z,1.90
2019-01-03T06:38:18.226Z,1.67
2019-01-03T06:40:54.605Z,1.73
2019-01-03T06:43:57.458Z,1.77
2019-01-03T06:47:00.926Z,2.00
2019-01-03T06:49:58.950Z,1.23
2019-01-03T06:52:43.982Z,1.67
2019-01-03T06:55:49.667Z,1.73
2019-01-03T06:58:37.060Z,1.40
2019-01-03T07:01:24.484Z,2.03
2019-01-03T07:04:14.154Z,1.63
2019-01-03T07:07:00.361Z,1.67
2019-01-03T07:09:43.218Z,1.33
2019-01-03T07:12:29.443Z,1.40
2019-01-03T07:15:24.049Z,1.60
2019-01-03T07:18:12.727Z,1.87
2019-01-03T07:21:02.695Z,1.43
2019-01-03T07:23:50.107Z,2.23
2019-01-03T07:26:39.001Z,1.73
2019-01-03T07:29:35.395Z,2.00
2019-01-03T07:32:22.853Z,1.60
2019-01-03T07:35:28.439Z,1.73
2019-01-03T07:38:15.876Z,1.67
2019-01-03T07:41:15.657Z,1.80
2019-01-03T07:44:14.983Z,2.00
2019-01-03T07:47:08.060Z,1.70
2019-01-03T07:49:54.464Z,2.00
2019-01-03T07:52:40.418Z,1.42
2019-01-03T07:55:40.010Z,1.70
2019-01-03T07:58:29.994Z,1.60
2019-01-03T08:01:17.603Z,1.70
2019-01-03T08:04:03.968Z,1.67
2019-01-03T08:10:30.274Z,1.47
2019-01-03T08:13:20.555Z,1.83
2019-01-03T08:16:06.804Z,1.92
2019-01-03T08:18:52.786Z,2.05
2019-01-03T08:21:52.356Z,2.30
2019-01-03T08:24:38.330Z,2.20
2019-01-03T08:27:31.933Z,2.20
2019-01-03T08:30:12.182Z,2.57
2019-01-03T08:33:08.507Z,2.60
2019-01-03T08:35:55.975Z,3.40
2019-01-03T08:38:58.667Z,2.70
2019-01-03T08:41:52.371Z,2.57
2019-01-03T08:44:38.421Z,2.50
2019-01-03T08:47:40.960Z,1.80
2019-01-03T08:50:27.150Z,2.60
2019-01-03T08:53:13.231Z,2.20
2019-01-03T08:55:58.909Z,2.40
2019-01-03T08:59:04.689Z,2.30
2019-01-03T09:01:50.762Z,2.80
2019-01-03T09:04:37.148Z,2.53
2019-01-03T09:07:24.589Z,2.55
2019-01-03T09:10:11.970Z,3.00
2019-01-03T09:13:08.133Z,2.90
2019-01-03T09:15:56.643Z,2.43
2019-01-03T09:18:42.978Z,2.37
2019-01-03T09:21:29.256Z,2.02
2019-01-03T09:24:15.664Z,1.90
2019-01-03T09:27:01.979Z,2.02
2019-01-03T09:29:52.294Z,1.63
2019-01-03T09:32:47.437Z,1.57
2019-01-03T09:35:50.085Z,1.60
2019-01-03T09:38:38.909Z,1.63
2019-01-03T09:41:33.235Z,1.57
2019-01-03T09:44:20.633Z,1.47
2019-01-03T09:46:48.934Z,1.40
2019-01-03T09:49:17.188Z,1.32
2019-01-03T09:51:45.483Z,1.25
2019-01-03T09:54:14.188Z,1.35
2019-01-03T09:56:42.481Z,1.47
2019-01-03T09:59:10.707Z,2.07
2019-01-03T10:01:39.125Z,2.00
2019-01-03T10:04:07.481Z,1.70
2019-01-03T10:06:35.709Z,1.40
2019-01-03T10:09:05.015Z,1.35
2019-01-03T10:11:33.214Z,1.53
2019-01-03T10:14:01.483Z,1.87
2019-01-03T10:16:29.722Z,2.20
2019-01-03T10:18:57.931Z,1.80
2019-01-03T10:21:26.169Z,1.87
2019-01-03T10:23:54.366Z,2.30
2019-01-03T10:26:23.579Z,1.83
2019-01-03T10:28:51.893Z,2.40
2019-01-03T10:31:20.137Z,2.17
2019-01-03T10:33:49.329Z,1.87
2019-01-03T10:36:17.686Z,1.53
2019-01-03T10:38:45.923Z,2.13
2019-01-03T10:41:14.186Z,1.92
2019-01-03T10:43:43.587Z,3.20
2019-01-03T10:46:11.811Z,2.17
2019-01-03T10:48:40.234Z,1.93
2019-01-03T10:51:08.627Z,1.93
2019-01-03T10:53:36.980Z,2.47
2019-01-03T10:56:05.301Z,2.08
2019-01-03T10:58:33.611Z,1.62
2019-01-03T11:01:01.846Z,2.07
2019-01-03T11:03:30.077Z,1.90
2019-01-03T11:05:58.333Z,1.53
2019-01-03T11:08:26.594Z,2.20
2019-01-03T11:10:54.869Z,1.53
2019-01-03T11:13:23.076Z,2.43
2019-01-03T11:15:51.391Z,1.70
2019-01-03T11:18:20.149Z,1.60
2019-01-03T11:20:48.416Z,1.67
2019-01-03T11:23:16.639Z,1.70
2019-01-03T11:25:44.969Z,1.90
2019-01-03T11:28:13.175Z,0.65
2019-01-03T11:30:41.491Z,1.60
2019-01-03T11:33:09.811Z,1.67
2019-01-03T11:35:38.123Z,1.70
2019-01-03T11:38:06.531Z,1.40
2019-01-03T11:40:34.855Z,1.43
2019-01-03T11:43:03.341Z,1.57
2019-01-03T11:45:31.590Z,1.80
2019-01-03T11:47:59.844Z,1.60
2019-01-03T11:50:28.061Z,1.77
2019-01-03T11:52:56.523Z,2.00
2019-01-03T11:55:24.813Z,1.70
2019-01-03T11:57:53.895Z,1.30
2019-01-03T12:00:22.126Z,0.97
2019-01-03T12:02:52.338Z,1.30
2019-01-03T12:05:20.464Z,1.00
2019-01-03T12:07:48.744Z,1.10
2019-01-03T12:10:18.594Z,1.00
2019-01-03T12:12:47.068Z,0.90
2019-01-03T12:15:16.696Z,0.87
2019-01-03T12:17:45.312Z,0.73
2019-01-03T12:20:13.561Z,0.50
2019-01-03T12:22:41.849Z,1.00
2019-01-03T12:25:10.113Z,1.10
2019-01-03T12:27:38.321Z,0.98
2019-01-03T12:30:07.615Z,1.00
2019-01-03T12:32:35.866Z,0.70
2019-01-03T12:35:04.322Z,0.70
2019-01-03T12:37:32.595Z,1.00
2019-01-03T12:40:01.000Z,0.93
2019-01-03T12:42:29.413Z,0.73
2019-01-03T12:44:57.681Z,1.07
2019-01-03T12:47:27.714Z,0.80
2019-01-03T12:49:55.981Z,0.65
2019-01-03T12:52:24.218Z,1.10
2019-01-03T12:54:52.522Z,0.73
2019-01-03T12:57:23.587Z,0.97
2019-01-03T12:59:51.789Z,0.77
2019-01-03T13:02:20.136Z,0.67
2019-01-03T13:04:48.368Z,0.75
2019-01-03T13:07:16.609Z,0.60
2019-01-03T13:09:47.928Z,0.63
2019-01-03T13:12:16.188Z,1.10
2019-01-03T13:14:44.431Z,0.85
2019-01-03T13:17:12.748Z,1.27
2019-01-03T13:19:41.005Z,0.43
2019-01-03T13:22:09.310Z,0.90
2019-01-03T13:24:37.622Z,0.47
2019-01-03T13:27:05.926Z,0.82
2019-01-03T13:29:34.172Z,0.88
2019-01-03T13:32:02.382Z,0.50
2019-01-03T13:34:30.641Z,0.80
2019-01-03T13:36:58.894Z,0.60
2019-01-03T13:39:27.169Z,0.78
2019-01-03T13:41:55.439Z,0.75
2019-01-03T13:44:23.668Z,1.00
2019-01-03T13:46:51.878Z,1.00
2019-01-03T13:49:20.169Z,1.00
2019-01-03T13:51:48.410Z,0.47
2019-01-03T13:54:17.054Z,0.57
2019-01-03T13:56:45.300Z,0.77
2019-01-03T13:59:13.542Z,0.95
2019-01-03T14:01:41.744Z,0.90
2019-01-03T14:04:09.993Z,0.90
2019-01-03T14:06:38.215Z,0.93
2019-01-03T14:09:06.502Z,0.90
2019-01-03T14:11:34.777Z,0.80
2019-01-03T14:14:03.012Z,1.15
2019-01-03T14:16:31.250Z,0.83
2019-01-03T14:18:59.482Z,0.87
2019-01-03T14:21:28.204Z,1.00
2019-01-03T14:23:56.482Z,1.15
2019-01-03T14:26:24.708Z,1.07
2019-01-03T14:28:52.923Z,0.78
2019-01-03T14:31:21.176Z,1.12
2019-01-03T14:33:49.437Z,1.10
2019-01-03T14:36:20.428Z,1.20
2019-01-03T14:38:48.688Z,1.57
2019-01-03T14:41:16.902Z,1.60
2019-01-03T14:43:45.149Z,1.85
2019-01-03T14:46:13.361Z,1.70
2019-01-03T14:48:41.594Z,1.60
2019-01-03T14:51:09.801Z,1.50
2019-01-03T14:53:38.077Z,1.60
2019-01-03T14:56:06.300Z,1.80
2019-01-03T14:58:34.541Z,1.80
2019-01-03T15:01:02.942Z,1.87
2019-01-03T15:03:31.241Z,1.67
2019-01-03T15:05:59.581Z,1.83
2019-01-03T15:08:27.823Z,1.52
2019-01-03T15:10:56.088Z,1.62
2019-01-03T15:13:24.360Z,1.62
2019-01-03T15:15:52.599Z,1.70
2019-01-03T15:18:20.844Z,2.00
2019-01-03T15:20:49.208Z,1.90
2019-01-03T15:23:17.490Z,2.22
2019-01-03T15:25:45.725Z,2.10
2019-01-03T15:28:13.987Z,1.57
2019-01-03T15:30:42.203Z,2.17
2019-01-03T15:33:10.472Z,2.23
2019-01-03T15:35:38.773Z,2.17
2019-01-03T15:38:07.066Z,1.77
2019-01-03T15:40:35.275Z,1.87
2019-01-03T15:43:03.526Z,1.70
2019-01-03T15:45:31.766Z,2.50
2019-01-03T15:48:00.101Z,1.50
2019-01-03T15:50:28.322Z,1.75
2019-01-03T15:52:56.529Z,2.10
2019-01-03T15:55:24.800Z,1.97
2019-01-03T15:57:53.022Z,1.60
2019-01-03T16:00:21.270Z,2.20
2019-01-03T16:02:49.499Z,1.67
2019-01-03T16:05:17.746Z,1.87
2019-01-03T16:07:47.630Z,1.85
2019-01-03T16:10:15.957Z,2.30
2019-01-03T16:12:44.228Z,2.10
2019-01-03T16:15:12.534Z,1.57
2019-01-03T16:17:40.888Z,1.67
2019-01-03T16:20:10.523Z,1.53
2019-01-03T16:22:38.844Z,1.65
2019-01-03T16:25:10.403Z,1.70
2019-01-03T16:27:39.029Z,1.55
2019-01-03T16:30:08.300Z,2.10
2019-01-03T16:32:36.691Z,1.92
2019-01-03T16:35:05.025Z,1.93
2019-01-03T16:37:33.388Z,1.67
2019-01-03T16:40:01.601Z,1.77
2019-01-03T16:42:43.039Z,1.98
2019-01-03T16:45:11.485Z,2.03
2019-01-03T16:47:39.715Z,2.02
2019-01-03T16:50:09.397Z,1.90
2019-01-03T16:52:39.209Z,1.57
2019-01-03T16:55:07.486Z,1.57
2019-01-03T16:57:35.788Z,1.50
2019-01-03T17:00:04.236Z,1.70
2019-01-03T17:02:32.547Z,2.17
2019-01-03T17:05:00.868Z,1.70
2019-01-03T17:07:29.081Z,2.23
2019-01-03T17:09:57.434Z,1.90
2019-01-03T17:12:25.697Z,1.92
2019-01-03T17:14:53.974Z,2.20
2019-01-03T17:17:22.267Z,2.10
2019-01-03T17:19:50.546Z,2.33
2019-01-03T17:22:18.867Z,3.40
2019-01-03T17:24:47.194Z,5.22
2019-01-03T17:27:15.623Z,3.83
2019-01-03T17:29:44.085Z,4.33
2019-01-03T17:32:12.597Z,1.85
2019-01-03T17:34:41.921Z,2.17
2019-01-03T17:37:10.230Z,2.30
2019-01-03T17:39:38.548Z,2.02
2019-01-03T17:42:06.856Z,2.02
2019-01-03T17:44:35.132Z,1.82
2019-01-03T17:47:05.806Z,2.02
2019-01-03T17:49:34.152Z,2.45
2019-01-03T17:52:02.398Z,3.70
2019-01-03T17:54:30.644Z,2.17
2019-01-03T17:56:58.936Z,2.27
2019-01-03T17:59:30.364Z,2.37
2019-01-03T18:01:58.620Z,2.15
2019-01-03T18:04:26.857Z,2.08
2019-01-03T18:06:55.352Z,2.60
2019-01-03T18:09:23.764Z,1.85
2019-01-03T18:11:55.327Z,2.27
2019-01-03T18:14:25.433Z,2.35
2019-01-03T18:16:53.746Z,1.90
2019-01-03T18:19:22.123Z,1.87
2019-01-03T18:21:51.072Z,2.05
2019-01-03T18:24:19.427Z,2.80
2019-01-03T18:26:48.222Z,1.85
2019-01-03T18:29:16.511Z,2.15
2019-01-03T18:31:44.784Z,2.07
2019-01-03T18:34:13.025Z,1.87
2019-01-03T18:36:41.342Z,2.13
2019-01-03T18:39:09.644Z,1.92
2019-01-03T18:41:37.878Z,1.82
2019-01-03T18:44:06.790Z,2.30
2019-01-03T18:46:37.831Z,1.65
2019-01-03T18:49:06.153Z,2.40
2019-01-03T18:51:34.783Z,2.23
2019-01-03T18:54:03.033Z,1.60
2019-01-03T18:56:31.314Z,2.15
2019-01-03T18:58:59.694Z,1.75
2019-01-03T19:01:27.962Z,2.50
2019-01-03T19:03:56.231Z,2.40
2019-01-03T19:06:24.520Z,2.30
2019-01-03T19:08:52.760Z,2.85
2019-01-03T19:11:21.043Z,3.47
2019-01-03T19:13:49.414Z,3.17
2019-01-03T19:16:17.690Z,3.73
2019-01-03T19:18:46.054Z,3.13
2019-01-03T19:21:14.445Z,2.50
2019-01-03T19:23:42.854Z,2.70
2019-01-03T19:26:11.618Z,2.70
2019-01-03T19:28:39.857Z,2.37
2019-01-03T19:31:08.182Z,2.40
2019-01-03T19:33:36.563Z,2.10
2019-01-03T19:36:05.831Z,2.05
2019-01-03T19:38:34.151Z,2.17
2019-01-03T19:41:03.794Z,2.35
2019-01-03T19:43:35.787Z,2.30
2019-01-03T19:46:04.100Z,2.20
2019-01-03T19:48:32.465Z,1.73
2019-01-03T19:51:00.856Z,2.08
2019-01-03T19:53:29.208Z,2.20
2019-01-03T19:55:58.463Z,1.82
2019-01-03T19:58:26.780Z,2.00
2019-01-03T20:00:55.091Z,2.27
2019-01-03T20:03:23.374Z,2.08
2019-01-03T20:05:51.678Z,1.90
2019-01-03T20:08:19.885Z,1.92
2019-01-03T20:10:48.170Z,2.07
2019-01-03T20:13:16.676Z,1.83
2019-01-03T20:15:45.069Z,1.80
2019-01-03T20:18:13.450Z,1.98
2019-01-03T20:20:43.539Z,2.47
2019-01-03T20:23:11.891Z,2.62
2019-01-03T20:25:40.182Z,2.63
2019-01-03T20:28:08.556Z,2.43
2019-01-03T20:30:36.884Z,2.55
2019-01-03T20:33:05.176Z,2.60
2019-01-03T20:35:36.500Z,2.70
2019-01-03T20:38:04.774Z,2.25
2019-01-03T20:40:33.080Z,2.80
2019-01-03T20:43:01.390Z,2.83
2019-01-03T20:45:29.596Z,2.80
2019-01-03T20:47:58.031Z,2.85
2019-01-03T20:50:26.323Z,2.87
2019-01-03T20:52:54.686Z,2.85
2019-01-03T20:55:23.005Z,2.63
2019-01-03T20:57:52.506Z,2.67
2019-01-03T21:00:21.006Z,2.90
2019-01-03T21:02:49.428Z,3.10
2019-01-03T21:05:17.670Z,2.83
2019-01-03T21:07:45.985Z,3.12
2019-01-03T21:10:14.380Z,3.08
2019-01-03T21:12:42.774Z,2.97
2019-01-03T21:15:12.689Z,3.13
2019-01-03T21:17:41.059Z,2.95
2019-01-03T21:20:11.025Z,2.80
2019-01-03T21:22:39.337Z,3.10
2019-01-03T21:25:08.176Z,3.37
2019-01-03T21:27:37.531Z,3.47
2019-01-03T21:30:07.399Z,4.17
2019-01-03T21:32:35.672Z,2.95
2019-01-03T21:35:04.051Z,3.60
2019-01-03T21:37:32.420Z,3.58
2019-01-03T21:40:00.794Z,3.75
2019-01-03T21:42:29.202Z,3.70
2019-01-03T21:44:58.613Z,4.00
2019-01-03T21:47:27.049Z,3.83
2019-01-03T21:49:55.360Z,3.83
2019-01-03T21:52:24.667Z,3.73
2019-01-03T21:54:53.135Z,3.80
2019-01-03T21:57:21.474Z,3.87
2019-01-03T21:59:49.795Z,3.93
2019-01-03T22:02:18.258Z,4.33
2019-01-03T22:04:46.862Z,3.83
2019-01-03T22:07:15.269Z,3.67
2019-01-03T22:09:44.619Z,4.17
2019-01-03T22:12:12.954Z,2.72
2019-01-03T22:14:41.283Z,4.80
2019-01-03T22:17:09.636Z,4.40
2019-01-03T22:19:37.847Z,4.33
2019-01-03T22:22:06.134Z,4.53
2019-01-03T22:24:34.495Z,4.33
2019-01-03T22:27:02.835Z,4.20
2019-01-03T22:29:31.182Z,3.70
2019-01-03T22:31:59.471Z,4.25
2019-01-03T22:34:27.808Z,4.07
2019-01-03T22:36:56.069Z,4.73
2019-01-03T22:39:24.289Z,4.17
2019-01-03T22:41:52.569Z,4.57
2019-01-03T22:44:20.882Z,3.03
2019-01-03T22:46:49.189Z,3.58
2019-01-03T22:49:17.591Z,3.50
2019-01-03T22:51:45.810Z,3.40
2019-01-03T22:54:14.127Z,3.17
2019-01-03T22:56:42.349Z,3.60
2019-01-03T22:59:10.655Z,3.70
2019-01-03T23:01:38.977Z,3.30
2019-01-03T23:04:07.340Z,3.43
2019-01-03T23:06:35.633Z,3.40
2019-01-03T23:09:04.937Z,3.13
2019-01-03T23:11:33.320Z,3.33
2019-01-03T23:14:01.543Z,2.80
2019-01-03T23:16:29.826Z,2.98
2019-01-03T23:18:59.056Z,3.22
2019-01-03T23:21:27.430Z,3.17
2019-01-03T23:23:55.743Z,3.23
2019-01-03T23:26:24.990Z,3.10
2019-01-03T23:28:53.223Z,3.10
2019-01-03T23:31:21.555Z,2.77
2019-01-03T23:33:49.753Z,3.13
2019-01-03T23:36:18.014Z,3.42
2019-01-03T23:38:46.263Z,2.93
2019-01-03T23:41:14.510Z,3.40
2019-01-03T23:43:44.149Z,3.13
2019-01-03T23:46:12.369Z,3.07
2019-01-03T23:48:40.613Z,2.80
2019-01-03T23:51:08.858Z,2.53
2019-01-03T23:53:37.153Z,3.20
2019-01-03T23:56:05.459Z,3.07
2019-01-03T23:58:36.534Z,2.60
